createdAt,value
2018-12-07T00:02:15.153Z,4.77
2018-12-07T00:04:45.946Z,4.83
2018-12-07T00:07:23.835Z,4.75
2018-12-07T00:09:54.688Z,4.78
2018-12-07T00:12:25.518Z,4.80
2018-12-07T00:14:56.389Z,4.78
2018-12-07T00:17:27.194Z,4.78
2018-12-07T00:19:58.035Z,4.80
2018-12-07T00:22:28.962Z,4.79
2018-12-07T00:24:59.867Z,4.82
2018-12-07T00:27:30.679Z,4.88
2018-12-07T00:30:01.602Z,4.92
2018-12-07T00:32:33.548Z,4.87
2018-12-07T00:35:04.532Z,4.87
2018-12-07T00:37:35.451Z,4.93
2018-12-07T00:40:06.567Z,4.96
2018-12-07T00:42:37.357Z,4.92
2018-12-07T00:45:08.165Z,4.88
2018-12-07T00:47:39.003Z,4.92
2018-12-07T00:50:09.836Z,4.91
2018-12-07T00:52:40.741Z,4.92
2018-12-07T00:55:23.842Z,4.94
2018-12-07T00:57:54.659Z,4.93
2018-12-07T01:00:25.467Z,4.97
2018-12-07T01:02:57.382Z,4.95
2018-12-07T01:05:28.282Z,4.89
2018-12-07T01:07:59.211Z,4.87
2018-12-07T01:10:30.064Z,4.93
2018-12-07T01:13:00.885Z,4.94
2018-12-07T01:15:31.677Z,4.91
2018-12-07T01:18:02.511Z,4.90
2018-12-07T01:20:33.321Z,4.89
2018-12-07T01:23:04.114Z,4.94
2018-12-07T01:25:34.915Z,4.94
2018-12-07T01:28:05.754Z,4.96
2018-12-07T01:30:36.529Z,4.98
2018-12-07T01:33:07.340Z,4.97
2018-12-07T01:35:38.104Z,4.96
2018-12-07T01:38:08.886Z,5.02
2018-12-07T01:40:39.679Z,5.10
2018-12-07T01:43:10.504Z,5.06
2018-12-07T01:45:41.271Z,5.12
2018-12-07T01:48:12.415Z,5.07
2018-12-07T01:50:43.286Z,5.08
2018-12-07T01:53:14.125Z,5.01
2018-12-07T01:55:44.914Z,5.03
2018-12-07T01:58:15.753Z,5.06
2018-12-07T02:00:46.587Z,5.05
2018-12-07T02:03:17.471Z,5.10
2018-12-07T02:05:48.237Z,5.11
2018-12-07T02:08:19.048Z,5.15
2018-12-07T02:10:49.925Z,5.18
2018-12-07T02:13:20.792Z,5.19
2018-12-07T02:15:51.586Z,5.19
2018-12-07T02:18:22.415Z,5.20
2018-12-07T02:20:53.214Z,5.23
2018-12-07T02:23:24.014Z,5.16
2018-12-07T02:25:54.796Z,5.20
2018-12-07T02:28:25.582Z,5.18
2018-12-07T02:30:56.371Z,5.16
2018-12-07T02:33:27.154Z,5.18
2018-12-07T02:35:58.026Z,5.23
2018-12-07T02:38:28.848Z,5.26
2018-12-07T02:40:59.662Z,5.29
2018-12-07T02:43:30.567Z,5.31
2018-12-07T02:46:01.370Z,5.30
2018-12-07T02:48:32.183Z,5.35
2018-12-07T02:51:03.320Z,5.27
2018-12-07T02:53:34.109Z,5.30
2018-12-07T02:56:04.898Z,5.27
2018-12-07T02:58:35.681Z,5.25
2018-12-07T03:01:06.609Z,5.27
2018-12-07T03:03:37.531Z,5.31
2018-12-07T03:06:08.351Z,5.36
2018-12-07T03:08:39.301Z,5.38
2018-12-07T03:11:10.079Z,5.42
2018-12-07T03:13:40.922Z,5.44
2018-12-07T03:16:11.727Z,5.48
2018-12-07T03:18:42.498Z,5.43
2018-12-07T03:21:13.325Z,5.50
2018-12-07T03:23:44.219Z,5.50
2018-12-07T03:26:15.054Z,5.49
2018-12-07T03:28:46.153Z,5.52
2018-12-07T03:31:17.174Z,5.54
2018-12-07T03:33:50.313Z,5.60
2018-12-07T03:36:21.226Z,5.54
2018-12-07T03:38:52.071Z,5.55
2018-12-07T03:41:22.951Z,5.52
2018-12-07T03:43:53.789Z,5.53
2018-12-07T03:46:24.670Z,5.50
2018-12-07T03:48:55.597Z,5.50
2018-12-07T03:51:26.398Z,5.54
2018-12-07T03:53:57.205Z,5.53
2018-12-07T03:56:27.976Z,5.49
2018-12-07T03:58:58.818Z,5.49
2018-12-07T04:01:29.634Z,5.48
2018-12-07T04:04:00.439Z,5.48
2018-12-07T04:06:31.259Z,5.49
2018-12-07T04:09:03.914Z,5.55
2018-12-07T04:11:35.801Z,5.53
2018-12-07T04:14:06.661Z,5.57
2018-12-07T04:16:37.487Z,5.55
2018-12-07T04:19:08.299Z,5.44
2018-12-07T04:21:39.124Z,5.59
2018-12-07T04:24:09.942Z,5.59
2018-12-07T04:26:40.756Z,5.62
2018-12-07T04:29:11.586Z,5.62
2018-12-07T04:31:42.358Z,5.70
2018-12-07T04:34:13.321Z,5.71
2018-12-07T04:36:44.210Z,5.72
2018-12-07T04:39:15.118Z,5.74
2018-12-07T04:41:45.918Z,5.79
2018-12-07T04:44:16.791Z,5.73
2018-12-07T04:46:47.635Z,5.75
2018-12-07T04:49:18.451Z,5.74
2018-12-07T04:51:49.252Z,5.72
2018-12-07T04:54:20.282Z,5.73
2018-12-07T04:56:51.118Z,5.64
2018-12-07T04:59:22.185Z,5.69
2018-12-07T05:01:53.044Z,5.71
2018-12-07T05:04:23.906Z,5.62
2018-12-07T05:06:54.787Z,5.70
2018-12-07T05:09:26.668Z,5.76
2018-12-07T05:11:57.840Z,5.76
2018-12-07T05:14:28.737Z,5.81
2018-12-07T05:16:59.523Z,5.82
2018-12-07T05:19:30.366Z,5.89
2018-12-07T05:22:01.186Z,5.89
2018-12-07T05:24:32.011Z,5.89
2018-12-07T05:27:03.040Z,5.89
2018-12-07T05:29:33.833Z,5.94
2018-12-07T05:32:04.632Z,6.03
2018-12-07T05:34:35.430Z,5.92
2018-12-07T05:37:06.255Z,5.90
2018-12-07T05:39:37.064Z,5.95
2018-12-07T05:42:07.830Z,5.96
2018-12-07T05:44:38.734Z,5.93
2018-12-07T05:47:09.531Z,5.92
2018-12-07T05:49:40.363Z,5.89
2018-12-07T05:52:11.242Z,5.90
2018-12-07T05:54:42.075Z,5.95
2018-12-07T05:57:12.952Z,5.88
2018-12-07T05:59:43.751Z,5.88
2018-12-07T06:02:14.527Z,5.91
2018-12-07T06:04:45.390Z,5.85
2018-12-07T06:07:16.198Z,5.87
2018-12-07T06:09:47.134Z,5.94
2018-12-07T06:12:18.053Z,5.93
2018-12-07T06:14:48.898Z,5.88
2018-12-07T06:17:19.720Z,5.95
2018-12-07T06:19:50.524Z,5.95
2018-12-07T06:22:21.315Z,5.95
2018-12-07T06:24:52.264Z,6.04
2018-12-07T06:27:23.029Z,6.07
2018-12-07T06:29:53.825Z,6.15
2018-12-07T06:32:24.609Z,6.11
2018-12-07T06:34:55.435Z,6.11
2018-12-07T06:37:26.262Z,6.14
2018-12-07T06:39:57.216Z,6.21
2018-12-07T06:42:28.062Z,6.19
2018-12-07T06:44:58.888Z,6.20
2018-12-07T06:47:29.697Z,6.27
2018-12-07T06:50:00.518Z,6.38
2018-12-07T06:52:31.425Z,6.36
2018-12-07T06:55:03.082Z,6.36
2018-12-07T06:57:33.882Z,6.37
2018-12-07T07:00:06.114Z,6.42
2018-12-07T07:02:36.935Z,6.47
2018-12-07T07:05:07.862Z,6.39
2018-12-07T07:07:38.674Z,6.38
2018-12-07T07:10:09.487Z,6.49
2018-12-07T07:12:40.305Z,6.48
2018-12-07T07:15:11.214Z,6.52
2018-12-07T07:17:41.999Z,6.51
2018-12-07T07:20:12.837Z,6.55
2018-12-07T07:22:43.670Z,6.60
2018-12-07T07:25:14.519Z,6.61
2018-12-07T07:27:45.287Z,6.71
2018-12-07T07:30:16.114Z,6.76
2018-12-07T07:32:46.986Z,6.79
2018-12-07T07:35:17.923Z,6.82
2018-12-07T07:37:48.680Z,6.83
2018-12-07T07:40:19.508Z,6.91
2018-12-07T07:42:50.280Z,6.96
2018-12-07T07:45:21.116Z,6.98
2018-12-07T07:47:51.940Z,7.12
2018-12-07T07:50:22.730Z,7.07
2018-12-07T07:52:53.529Z,7.02
2018-12-07T07:55:24.352Z,7.19
2018-12-07T07:57:55.145Z,7.18
2018-12-07T08:00:25.977Z,7.24
2018-12-07T08:02:59.890Z,7.27
2018-12-07T08:05:29.608Z,7.20
2018-12-07T08:08:00.398Z,7.15
2018-12-07T08:10:31.221Z,7.12
2018-12-07T08:13:02.026Z,7.04
2018-12-07T08:15:32.786Z,7.12
2018-12-07T08:18:03.690Z,7.17
2018-12-07T08:20:34.474Z,7.15
2018-12-07T08:23:05.409Z,7.19
2018-12-07T08:25:36.251Z,7.25
2018-12-07T08:28:07.048Z,7.41
2018-12-07T08:30:38.047Z,7.44
2018-12-07T08:33:08.905Z,7.47
2018-12-07T08:35:40.213Z,7.60
2018-12-07T08:38:11.052Z,7.64
2018-12-07T08:40:41.875Z,7.68
2018-12-07T08:43:12.694Z,7.70
2018-12-07T08:45:43.517Z,7.71
2018-12-07T08:48:14.293Z,7.82
2018-12-07T08:50:45.110Z,7.78
2018-12-07T08:53:15.896Z,7.88
2018-12-07T08:55:46.724Z,7.88
2018-12-07T08:58:17.530Z,7.85
2018-12-07T09:00:48.418Z,7.90
2018-12-07T09:03:19.224Z,7.92
2018-12-07T09:05:50.056Z,8.07
2018-12-07T09:08:20.837Z,8.09
2018-12-07T09:10:51.675Z,8.18
2018-12-07T09:13:29.218Z,8.25
2018-12-07T09:16:00.000Z,8.45
2018-12-07T09:18:30.760Z,8.55
2018-12-07T09:21:01.550Z,8.69
2018-12-07T09:23:49.681Z,8.78
2018-12-07T09:26:20.253Z,8.83
2018-12-07T09:28:51.121Z,8.97
2018-12-07T09:31:21.962Z,8.93
2018-12-07T09:33:52.786Z,8.90
2018-12-07T09:36:23.553Z,8.96
2018-12-07T09:38:54.444Z,9.04
2018-12-07T09:41:25.266Z,9.16
2018-12-07T09:43:56.026Z,9.19
2018-12-07T09:46:26.818Z,9.33
2018-12-07T09:48:57.597Z,9.34
2018-12-07T09:51:28.376Z,9.63
2018-12-07T09:53:59.169Z,9.74
2018-12-07T09:56:30.007Z,9.86
2018-12-07T09:59:00.805Z,10.02
2018-12-07T10:01:31.601Z,10.15
2018-12-07T10:04:02.591Z,10.18
2018-12-07T10:06:33.363Z,10.26
2018-12-07T10:09:05.483Z,10.24
2018-12-07T10:11:36.281Z,10.53
2018-12-07T10:14:07.112Z,10.55
2018-12-07T10:16:37.915Z,10.66
2018-12-07T10:19:08.797Z,10.76
2018-12-07T10:21:39.605Z,10.89
2018-12-07T10:24:10.378Z,10.87
2018-12-07T10:26:41.317Z,11.30
2018-12-07T10:29:12.117Z,11.65
2018-12-07T10:31:42.955Z,11.74
2018-12-07T10:34:13.770Z,11.78
2018-12-07T10:36:44.605Z,11.85
2018-12-07T10:39:15.402Z,12.02
2018-12-07T10:41:46.203Z,12.57
2018-12-07T10:44:16.973Z,12.88
2018-12-07T10:46:47.896Z,13.36
2018-12-07T10:49:18.665Z,13.22
2018-12-07T10:51:49.431Z,13.61
2018-12-07T10:54:20.271Z,13.35
2018-12-07T10:56:51.200Z,13.36
2018-12-07T10:59:21.956Z,13.51
2018-12-07T11:01:58.877Z,13.61
2018-12-07T11:04:35.800Z,13.31
2018-12-07T11:07:12.808Z,13.13
2018-12-07T11:09:49.811Z,13.22
2018-12-07T11:12:26.624Z,13.10
2018-12-07T11:15:03.434Z,13.27
2018-12-07T11:21:02.958Z,13.03
2018-12-07T11:23:39.961Z,12.92
2018-12-07T11:26:16.821Z,12.77
2018-12-07T11:28:53.580Z,12.70
2018-12-07T11:31:30.504Z,12.67
2018-12-07T11:34:03.284Z,12.57
2018-12-07T11:36:34.081Z,12.79
2018-12-07T11:39:06.332Z,12.75
2018-12-07T11:41:37.092Z,12.76
2018-12-07T11:44:07.866Z,12.64
2018-12-07T11:46:38.634Z,12.85
2018-12-07T11:49:09.389Z,12.64
2018-12-07T11:51:40.126Z,12.72
2018-12-07T11:54:15.060Z,12.68
2018-12-07T11:56:45.906Z,12.55
2018-12-07T11:59:16.662Z,12.62
2018-12-07T12:01:47.397Z,12.65
2018-12-07T12:04:18.250Z,12.70
2018-12-07T12:06:48.984Z,12.69
2018-12-07T12:09:19.853Z,12.49
2018-12-07T12:11:50.585Z,12.50
2018-12-07T12:14:21.329Z,12.59
2018-12-07T12:16:57.169Z,12.62
2018-12-07T12:19:27.909Z,12.71
2018-12-07T12:21:59.676Z,12.98
2018-12-07T12:24:30.422Z,13.21
2018-12-07T12:27:01.145Z,13.35
2018-12-07T12:29:32.889Z,13.33
2018-12-07T12:32:04.818Z,13.10
2018-12-07T12:34:36.625Z,12.96
2018-12-07T12:37:07.361Z,13.07
2018-12-07T12:39:38.084Z,13.10
2018-12-07T12:42:08.822Z,13.25
2018-12-07T12:44:39.669Z,13.15
2018-12-07T12:47:11.508Z,13.19
2018-12-07T12:49:42.248Z,12.96
2018-12-07T12:52:12.984Z,12.85
2018-12-07T12:54:43.732Z,12.83
2018-12-07T12:57:14.449Z,12.75
2018-12-07T12:59:45.564Z,12.80
2018-12-07T13:02:16.390Z,12.64
2018-12-07T13:04:48.173Z,12.61
2018-12-07T13:07:19.954Z,12.59
2018-12-07T13:09:51.746Z,12.50
2018-12-07T13:12:22.493Z,12.43
2018-12-07T13:14:53.506Z,12.40
2018-12-07T13:17:24.221Z,12.37
2018-12-07T13:19:54.993Z,12.44
2018-12-07T13:22:25.750Z,12.47
2018-12-07T13:24:56.529Z,12.57
2018-12-07T13:27:27.260Z,12.74
2018-12-07T13:29:58.033Z,12.68
2018-12-07T13:32:28.769Z,12.64
2018-12-07T13:34:59.552Z,12.46
2018-12-07T13:37:30.402Z,12.45
2018-12-07T13:40:01.563Z,12.46
2018-12-07T13:42:32.530Z,12.58
2018-12-07T13:45:05.246Z,12.68
2018-12-07T13:47:36.449Z,12.69
2018-12-07T13:50:13.899Z,12.64
2018-12-07T13:52:44.701Z,12.62
2018-12-07T13:55:15.668Z,12.53
2018-12-07T13:57:46.458Z,12.51
2018-12-07T14:00:19.543Z,12.56
2018-12-07T14:02:50.380Z,12.67
2018-12-07T14:05:21.216Z,12.63
2018-12-07T14:07:52.339Z,12.45
2018-12-07T14:10:23.425Z,12.32
2018-12-07T14:12:54.282Z,12.11
2018-12-07T14:15:25.129Z,12.05
2018-12-07T14:17:56.195Z,12.05
2018-12-07T14:20:27.129Z,12.02
2018-12-07T14:22:57.933Z,12.02
2018-12-07T14:25:33.373Z,12.02
2018-12-07T14:28:04.328Z,12.01
2018-12-07T14:30:36.019Z,12.03
2018-12-07T14:33:07.187Z,11.94
2018-12-07T14:35:45.064Z,11.93
2018-12-07T14:38:16.171Z,11.93
2018-12-07T14:40:47.074Z,11.99
2018-12-07T14:43:18.000Z,11.77
2018-12-07T14:45:49.167Z,11.80
2018-12-07T14:48:21.033Z,11.70
2018-12-07T14:50:52.105Z,11.69
2018-12-07T14:53:22.922Z,11.61
2018-12-07T14:55:54.067Z,11.63
2018-12-07T14:58:24.881Z,11.56
2018-12-07T15:00:55.916Z,11.62
2018-12-07T15:03:27.042Z,11.57
2018-12-07T15:05:58.137Z,11.57
2018-12-07T15:08:29.086Z,11.58
2018-12-07T15:11:00.098Z,11.50
2018-12-07T15:13:31.082Z,11.52
2018-12-07T15:16:02.233Z,11.51
2018-12-07T15:18:33.096Z,11.44
2018-12-07T15:21:04.143Z,11.39
2018-12-07T15:23:36.948Z,11.33
2018-12-07T15:26:07.882Z,11.42
2018-12-07T15:28:38.876Z,11.40
2018-12-07T15:31:09.946Z,11.32
2018-12-07T15:33:41.099Z,11.30
2018-12-07T15:36:12.138Z,11.25
2018-12-07T15:38:43.081Z,11.19
2018-12-07T15:41:14.118Z,11.15
2018-12-07T15:43:44.989Z,11.09
2018-12-07T15:46:16.031Z,11.03
2018-12-07T15:48:46.866Z,10.88
2018-12-07T15:51:17.945Z,10.83
2018-12-07T15:53:48.986Z,10.76
2018-12-07T15:56:20.020Z,10.75
2018-12-07T15:58:50.925Z,10.77
2018-12-07T16:01:21.947Z,10.66
2018-12-07T16:03:59.850Z,10.43
2018-12-07T16:06:30.883Z,10.44
2018-12-07T16:09:03.236Z,10.27
2018-12-07T16:11:34.147Z,10.20
2018-12-07T16:14:05.388Z,10.20
2018-12-07T16:16:36.368Z,10.12
2018-12-07T16:19:07.199Z,10.04
2018-12-07T16:21:38.213Z,10.00
2018-12-07T16:24:09.316Z,10.00
2018-12-07T16:26:40.205Z,9.97
2018-12-07T16:29:11.018Z,9.97
2018-12-07T16:31:42.118Z,9.93
2018-12-07T16:34:13.227Z,9.84
2018-12-07T16:36:44.332Z,9.93
2018-12-07T16:39:15.193Z,9.91
2018-12-07T16:41:46.172Z,9.85
2018-12-07T16:44:17.052Z,9.80
2018-12-07T16:46:48.259Z,9.73
2018-12-07T16:49:19.284Z,9.66
2018-12-07T16:51:50.256Z,9.59
2018-12-07T16:54:21.212Z,9.54
2018-12-07T16:56:52.286Z,9.46
2018-12-07T16:59:23.360Z,9.39
2018-12-07T17:01:54.351Z,9.36
2018-12-07T17:04:25.211Z,9.37
2018-12-07T17:06:56.080Z,9.26
2018-12-07T17:09:26.944Z,9.23
2018-12-07T17:11:57.896Z,9.18
2018-12-07T17:14:36.028Z,9.16
2018-12-07T17:17:06.945Z,9.12
2018-12-07T17:19:37.807Z,9.00
2018-12-07T17:22:08.832Z,9.08
2018-12-07T17:24:39.745Z,8.95
2018-12-07T17:27:10.559Z,8.90
2018-12-07T17:29:42.673Z,8.77
2018-12-07T17:32:13.821Z,8.65
2018-12-07T17:34:45.109Z,8.66
2018-12-07T17:37:16.390Z,8.69
2018-12-07T17:39:47.333Z,8.83
2018-12-07T17:42:18.322Z,8.85
2018-12-07T17:44:49.257Z,8.92
2018-12-07T17:47:20.030Z,8.95
2018-12-07T17:49:50.784Z,9.04
2018-12-07T17:52:21.602Z,9.13
2018-12-07T17:54:52.707Z,9.23
2018-12-07T17:57:23.709Z,9.25
2018-12-07T17:59:54.713Z,9.02
2018-12-07T18:02:25.648Z,9.36
2018-12-07T18:04:59.641Z,9.26
2018-12-07T18:07:31.109Z,9.23
2018-12-07T18:10:03.589Z,9.29
2018-12-07T18:12:34.613Z,9.33
2018-12-07T18:15:06.012Z,9.42
2018-12-07T18:17:36.878Z,9.48
2018-12-07T18:20:08.388Z,9.53
2018-12-07T18:22:39.279Z,9.63
2018-12-07T18:25:11.111Z,9.61
2018-12-07T18:27:42.218Z,9.51
2018-12-07T18:30:13.117Z,9.51
2018-12-07T18:32:44.267Z,9.41
2018-12-07T18:35:15.265Z,9.32
2018-12-07T18:37:48.575Z,9.34
2018-12-07T18:40:19.786Z,9.26
2018-12-07T18:42:50.663Z,9.23
2018-12-07T18:45:21.890Z,9.28
2018-12-07T18:47:53.840Z,9.40
2018-12-07T18:50:24.992Z,9.48
2018-12-07T18:52:56.136Z,9.52
2018-12-07T18:55:27.221Z,9.52
2018-12-07T18:57:58.214Z,9.42
2018-12-07T19:00:29.010Z,9.37
2018-12-07T19:03:00.062Z,9.32
2018-12-07T19:05:38.086Z,9.29
2018-12-07T19:08:09.010Z,9.23
2018-12-07T19:10:39.917Z,9.29
2018-12-07T19:13:10.848Z,9.24
2018-12-07T19:15:50.235Z,9.25
2018-12-07T19:18:21.167Z,9.25
2018-12-07T19:20:52.053Z,9.21
2018-12-07T19:23:23.191Z,9.11
2018-12-07T19:25:54.044Z,9.01
2018-12-07T19:28:29.485Z,8.87
2018-12-07T19:31:00.724Z,8.72
2018-12-07T19:33:31.581Z,8.80
2018-12-07T19:36:02.363Z,8.76
2018-12-07T19:38:33.326Z,8.70
2018-12-07T19:41:04.568Z,8.59
2018-12-07T19:43:35.789Z,8.63
2018-12-07T19:46:06.626Z,8.73
2018-12-07T19:48:37.559Z,8.74
2018-12-07T19:51:08.504Z,8.75
2018-12-07T19:53:39.565Z,8.69
2018-12-07T19:56:10.555Z,8.60
2018-12-07T19:58:41.421Z,8.59
2018-12-07T20:01:12.249Z,8.57
2018-12-07T20:03:43.089Z,8.51
2018-12-07T20:06:23.687Z,8.63
2018-12-07T20:08:55.887Z,8.76
2018-12-07T20:11:33.140Z,8.83
2018-12-07T20:14:08.739Z,8.87
2018-12-07T20:16:39.557Z,8.91
2018-12-07T20:19:10.413Z,8.88
2018-12-07T20:21:41.306Z,8.89
2018-12-07T20:24:17.464Z,8.83
2018-12-07T20:26:53.753Z,8.90
2018-12-07T20:29:24.730Z,8.82
2018-12-07T20:32:04.460Z,8.69
2018-12-07T20:34:35.519Z,8.64
2018-12-07T20:37:06.688Z,8.62
2018-12-07T20:39:37.678Z,8.54
2018-12-07T20:42:08.683Z,8.52
2018-12-07T20:44:39.508Z,8.51
2018-12-07T20:47:10.933Z,8.44
2018-12-07T20:49:42.494Z,8.45
2018-12-07T20:52:13.657Z,8.40
2018-12-07T20:54:44.704Z,8.36
2018-12-07T20:57:15.550Z,8.37
2018-12-07T20:59:53.370Z,8.41
2018-12-07T21:02:24.338Z,8.37
2018-12-07T21:04:56.646Z,8.27
2018-12-07T21:07:43.419Z,8.36
2018-12-07T21:10:51.308Z,8.29
2018-12-07T21:19:55.362Z,8.33
2018-12-07T21:22:26.528Z,8.33
2018-12-07T21:24:57.668Z,8.32
2018-12-07T21:27:29.784Z,8.39
2018-12-07T21:30:07.310Z,8.37
2018-12-07T21:32:41.635Z,8.37
2018-12-07T21:35:12.734Z,8.31
2018-12-07T21:37:43.895Z,8.36
2018-12-07T21:40:15.159Z,8.31
2018-12-07T21:42:46.165Z,8.32
2018-12-07T21:45:17.335Z,8.34
2018-12-07T21:48:04.320Z,8.36
2018-12-07T21:50:36.933Z,8.31
2018-12-07T21:53:07.985Z,8.43
2018-12-07T21:55:38.936Z,8.42
2018-12-07T21:58:09.786Z,8.41
2018-12-07T22:00:40.913Z,8.47
2018-12-07T22:03:11.834Z,8.56
2018-12-07T22:05:42.936Z,8.55
2018-12-07T22:08:15.970Z,8.47
2018-12-07T22:10:46.938Z,8.59
2018-12-07T22:13:17.858Z,8.60
2018-12-07T22:15:48.704Z,8.60
2018-12-07T22:18:19.674Z,8.62
2018-12-07T22:20:54.171Z,8.69
2018-12-07T22:23:25.066Z,8.81
2018-12-07T22:25:55.938Z,8.83
2018-12-07T22:28:26.952Z,8.83
2018-12-07T22:30:57.940Z,8.80
2018-12-07T22:33:28.742Z,8.70
2018-12-07T22:35:59.757Z,8.71
2018-12-07T22:38:30.960Z,8.83
2018-12-07T22:41:01.938Z,8.86
2018-12-07T22:43:32.845Z,8.89
2018-12-07T22:46:03.895Z,8.73
2018-12-07T22:48:36.027Z,8.61
2018-12-07T22:51:06.837Z,8.67
2018-12-07T22:53:37.573Z,8.57
2018-12-07T22:56:08.326Z,8.68
2018-12-07T22:58:40.220Z,8.59
2018-12-07T23:01:12.280Z,8.51
2018-12-07T23:03:43.138Z,8.55
2018-12-07T23:06:13.888Z,8.52
2018-12-07T23:08:44.746Z,8.57
2018-12-07T23:11:15.512Z,8.52
2018-12-07T23:13:46.247Z,8.48
2018-12-07T23:16:16.980Z,8.43
2018-12-07T23:18:47.937Z,8.40
2018-12-07T23:21:18.790Z,8.39
2018-12-07T23:23:49.549Z,8.32
2018-12-07T23:26:20.283Z,8.22
2018-12-07T23:28:51.049Z,8.14
2018-12-07T23:31:22.109Z,8.18
2018-12-07T23:33:52.872Z,8.20
2018-12-07T23:36:31.165Z,8.15
2018-12-07T23:39:02.042Z,8.21
2018-12-07T23:41:32.886Z,8.25
2018-12-07T23:44:03.637Z,8.20
2018-12-07T23:46:34.526Z,8.35
2018-12-07T23:49:05.414Z,8.39
2018-12-07T23:51:36.162Z,8.24
2018-12-07T23:54:07.037Z,8.17
2018-12-07T23:56:37.882Z,8.21
2018-12-07T23:59:08.679Z,8.17
